• Join FlightAware (Why Join?)
  • Login
  • US Flag 
11:51PM EDT


 

Airport Tracker/Info


-or-


 

Live Flight TrackerFlight Track Log ✈ RXA313 ✈ 09-Oct-2013 ✈ YLIS / LSY - YSSY / SYD

Flight Track Log - Related Links

Times and Time Zones

All times are in EDT time to prevent confusion due to time zone crossing. See the RXA313 flight status page for this flight to view local times or setup timezone preferences in your user account.

Time Position Orientation Groundspeed Altitude Reporting Facility
EDT Latitude Longitude Course Direction KTS MPH feet Rate Location/Type
03:51PM -28.8231 153.2574 207° Southwest 18,000  Level Aus ATC (Calculated)
03:52PM -28.9234 153.1991 201° Southwest 213 245 3,900 -5,700 Descending Aus ATC (RADAR)
03:53PM -28.9742 153.1765 201° Southwest 195 224 5,200 1,260 Climbing Aus ATC (RADAR)
03:54PM -29.0268 153.1495 204° Southwest 190 219 6,600 1,020 Climbing Aus ATC (RADAR)
03:56PM -29.1127 153.1028 205° Southwest 199 229 8,200 780 Climbing Aus ATC (RADAR)
03:57PM -29.1735 153.0707 205° Southwest 210 242 9,000 840 Climbing Aus ATC (RADAR)
04:00PM -29.2960 153.0051 205° Southwest 204 235 11,200 900 Climbing Aus ATC (RADAR)
04:00PM -29.3330 152.9857 205° Southwest 195 224 11,900 960 Climbing Aus ATC (RADAR)
04:01PM -29.3450 152.9792 205° Southwest 193 222 12,200 960 Climbing Aus ATC (RADAR)
04:01PM -29.3721 152.9645 205° Southwest 185 213 12,700 960 Climbing Aus ATC (RADAR)
04:02PM -29.4025 152.9493 204° Southwest 179 206 13,400 960 Climbing Aus ATC (RADAR)
04:02PM -29.4311 152.9332 206° Southwest 172 198 14,000 960 Climbing Aus ATC (RADAR)
04:03PM -29.4662 152.9149 204° Southwest 167 192 14,900 960 Climbing Aus ATC (RADAR)
04:04PM -29.4865 152.9036 206° Southwest 163 188 15,300 780 Climbing Aus ATC (RADAR)
04:04PM -29.4971 152.8984 203° Southwest 164 189 15,500 840 Climbing Aus ATC (RADAR)
04:05PM -29.5352 152.8783 205° Southwest 166 191 16,300 600 Climbing Aus ATC (RADAR)
04:05PM -29.5463 152.8720 207° Southwest 172 198 16,200 -180 Descending Aus ATC (RADAR)
04:06PM -29.5746 152.8573 204° Southwest 192 221 16,200  Level Aus ATC (RADAR)
04:07PM -29.6137 152.8361 205° Southwest 209 241 16,200  Level Aus ATC (RADAR)
04:07PM -29.6455 152.8189 205° Southwest 217 250 16,200  Level Aus ATC (RADAR)
04:08PM -29.6781 152.8012 205° Southwest 222 255 16,200  Level Aus ATC (RADAR)
04:08PM -29.7066 152.7866 204° Southwest 224 258 16,200  Level Aus ATC (RADAR)
04:09PM -29.7734 152.7503 205° Southwest 229 264 16,200  Level Aus ATC (RADAR)
04:10PM -29.8024 152.7348 205° Southwest 230 265 16,200  Level Aus ATC (RADAR)
04:10PM -29.8361 152.7166 205° Southwest 230 265 16,200  Level Aus ATC (RADAR)
04:11PM -29.8698 152.6982 205° Southwest 229 264 16,200  Level Aus ATC (RADAR)
04:12PM -29.8985 152.6822 206° Southwest 229 264 16,200  Level Aus ATC (RADAR)
04:12PM -29.9325 152.6641 205° Southwest 231 266 16,200  Level Aus ATC (RADAR)
04:13PM -29.9807 152.6374 206° Southwest 231 266 16,200  Level Aus ATC (RADAR)
04:13PM -30.0048 152.6244 205° Southwest 230 265 16,200  Level Aus ATC (RADAR)
04:15PM -30.1202 152.5623 205° Southwest 229 264 16,200  Level Aus ATC (RADAR)
04:16PM -30.1345 152.5544 206° Southwest 229 264 16,200  Level Aus ATC (RADAR)
04:16PM -30.1727 152.5337 205° Southwest 228 262 16,200  Level Aus ATC (RADAR)
04:17PM -30.2058 152.5153 206° Southwest 227 261 16,200  Level Aus ATC (RADAR)
04:17PM -30.2392 152.4973 205° Southwest 227 261 16,200  Level Aus ATC (RADAR)
04:18PM -30.2821 152.4742 205° Southwest 227 261 16,200  Level Aus ATC (RADAR)
04:19PM -30.3056 152.4614 205° Southwest 225 259 16,200  Level Aus ATC (RADAR)
04:20PM -30.4052 152.4073 205° Southwest 229 264 16,200  Level Aus ATC (RADAR)
04:21PM -30.4295 152.3942 205° Southwest 231 266 16,200  Level Aus ATC (RADAR)
04:21PM -30.4632 152.3758 205° Southwest 231 266 16,200  Level Aus ATC (RADAR)
04:22PM -30.5075 152.3517 205° Southwest 234 269 16,200  Level Aus ATC (RADAR)
04:23PM -30.5420 152.3334 205° Southwest 233 268 16,200  Level Aus ATC (RADAR)
04:24PM -30.5909 152.3075 205° Southwest 232 267 16,200  Level Aus ATC (RADAR)
04:25PM -30.6733 152.2634 205° Southwest 232 267 16,200  Level Aus ATC (RADAR)
04:25PM -30.6920 152.2532 205° Southwest 228 262 16,200  Level Aus ATC (RADAR)
04:26PM -30.7169 152.2398 205° Southwest 234 269 16,200  Level Aus ATC (RADAR)
04:26PM -30.7551 152.2192 205° Southwest 227 261 16,200  Level Aus ATC (RADAR)
04:27PM -30.7939 152.1984 205° Southwest 230 265 16,200  Level Aus ATC (RADAR)
04:28PM -30.8276 152.1804 205° Southwest 229 264 16,200  Level Aus ATC (RADAR)
04:28PM -30.8617 152.1623 205° Southwest 232 267 16,200  Level Aus ATC (RADAR)
04:29PM -30.8955 152.1441 205° Southwest 231 266 16,200  Level Aus ATC (RADAR)
04:30PM -30.9735 152.1023 205° Southwest 233 268 16,200  Level Aus ATC (RADAR)
04:31PM -30.9979 152.0896 204° Southwest 232 267 16,200  Level Aus ATC (RADAR)
04:31PM -31.0321 152.0708 205° Southwest 234 269 16,200  Level Aus ATC (RADAR)
04:32PM -31.0764 152.0472 205° Southwest 233 268 16,200  Level Aus ATC (RADAR)
04:32PM -31.1103 152.0288 205° Southwest 231 266 16,200  Level Aus ATC (RADAR)
04:33PM -31.1442 152.0108 204° Southwest 230 265 16,200  Level Aus ATC (RADAR)
04:34PM -31.1731 151.9944 206° Southwest 231 266 16,200  Level Aus ATC (RADAR)
04:35PM -31.2504 151.9532 205° Southwest 229 264 16,200  Level Aus ATC (RADAR)
04:35PM -31.2691 151.9435 204° Southwest 224 258 16,200  Level Aus ATC (RADAR)
04:36PM -31.2967 151.9285 205° Southwest 220 253 16,200  Level Aus ATC (RADAR)
04:36PM -31.3284 151.9110 205° Southwest 216 249 16,200  Level Aus ATC (RADAR)
04:37PM -31.3629 151.8925 205° Southwest 210 242 16,200  Level Aus ATC (RADAR)
04:37PM -31.3928 151.8767 204° Southwest 205 236 16,200  Level Aus ATC (RADAR)
04:38PM -31.4229 151.8600 205° Southwest 205 236 16,200  Level Aus ATC (RADAR)
04:39PM -31.4484 151.8458 205° Southwest 205 236 16,200  Level Aus ATC (RADAR)
04:40PM -31.5212 151.8092 203° Southwest 202 232 16,200  Level Aus ATC (RADAR)
04:40PM -31.5430 151.7981 204° Southwest 204 235 16,200  Level Aus ATC (RADAR)
04:41PM -31.5642 151.7863 205° Southwest 205 236 16,200  Level Aus ATC (RADAR)
04:41PM -31.5940 151.7703 205° Southwest 202 232 16,200  Level Aus ATC (RADAR)
04:42PM -31.6284 151.7522 204° Southwest 202 232 16,200  Level Aus ATC (RADAR)
04:43PM -31.6583 151.7361 205° Southwest 202 232 16,200  Level Aus ATC (RADAR)
04:43PM -31.6882 151.7203 204° Southwest 202 232 16,200  Level Aus ATC (RADAR)
04:44PM -31.7181 151.7046 204° Southwest 201 231 16,200  Level Aus ATC (RADAR)
04:46PM -31.8116 151.6545 204° Southwest 202 232 16,200  Level Aus ATC (RADAR)
04:46PM -31.8330 151.6438 203° Southwest 201 231 16,200  Level Aus ATC (RADAR)
04:47PM -31.8628 151.6278 205° Southwest 202 232 16,200  Level Aus ATC (RADAR)
04:47PM -31.9012 151.6066 205° Southwest 204 235 16,200  Level Aus ATC (RADAR)
04:48PM -31.9309 151.5912 204° Southwest 203 234 16,200  Level Aus ATC (RADAR)
04:49PM -31.9606 151.5750 205° Southwest 203 234 16,200  Level Aus ATC (RADAR)
04:49PM -31.9907 151.5594 204° Southwest 204 235 16,200  Level Aus ATC (RADAR)
04:51PM -32.0777 151.5129 204° Southwest 205 236 16,200  Level Aus ATC (RADAR)
04:51PM -32.0912 151.5064 202° Southwest 206 237 16,200  Level Aus ATC (RADAR)
04:52PM -32.1219 151.4897 205° Southwest 206 237 16,200  Level Aus ATC (RADAR)
04:52PM -32.1603 151.4689 205° Southwest 209 241 16,200  Level Aus ATC (RADAR)
04:53PM -32.1921 151.4520 204° Southwest 205 236 16,200  Level Aus ATC (RADAR)
04:54PM -32.2230 151.4354 204° Southwest 207 238 16,200  Level Aus ATC (RADAR)
04:54PM -32.2526 151.4189 205° Southwest 209 241 16,200  Level Aus ATC (RADAR)
04:56PM -32.3372 151.3735 204° Southwest 213 245 16,200  Level Aus ATC (RADAR)
04:56PM -32.3594 151.3614 205° Southwest 211 243 16,200  Level Aus ATC (RADAR)
04:57PM -32.3922 151.3444 204° Southwest 212 244 16,200  Level Aus ATC (RADAR)
04:57PM -32.4238 151.3273 205° Southwest 213 245 16,200  Level Aus ATC (RADAR)
04:58PM -32.4551 151.3105 204° Southwest 211 243 16,200  Level Aus ATC (RADAR)
04:59PM -32.4954 151.2885 205° Southwest 213 245 16,200  Level Aus ATC (RADAR)
04:59PM -32.5176 151.2764 205° Southwest 211 243 16,200  Level Aus ATC (RADAR)
05:00PM -32.5828 151.2536 196° South 206 237 16,200  Level Aus ATC (RADAR)
05:01PM -32.6121 151.2543 179° South 213 245 16,200  Level Aus ATC (RADAR)
05:01PM -32.6332 151.2545 179° South 216 249 16,200  Level Aus ATC (RADAR)
05:02PM -32.6684 151.2525 183° South 218 251 16,200  Level Aus ATC (RADAR)
05:02PM -32.7129 151.2489 184° South 215 247 16,200  Level Aus ATC (RADAR)
05:03PM -32.7512 151.2463 183° South 211 243 16,200  Level Aus ATC (RADAR)
05:04PM -32.7961 151.2442 182° South 211 243 16,200  Level Aus ATC (RADAR)
05:04PM -32.8212 151.2431 182° South 213 245 16,200  Level Aus ATC (RADAR)
05:05PM -32.8968 151.2394 182° South 215 247 16,200  Level Aus ATC (RADAR)
05:06PM -32.9255 151.2371 184° South 214 246 16,200  Level Aus ATC (RADAR)
05:06PM -32.9502 151.2358 183° South 212 244 16,200  Level Aus ATC (RADAR)
05:07PM -32.9854 151.2338 183° South 213 245 16,200  Level Aus ATC (RADAR)
05:08PM -33.0303 151.2316 182° South 214 246 16,200  Level Aus ATC (RADAR)
05:08PM -33.0654 151.2299 182° South 214 246 16,200  Level Aus ATC (RADAR)
05:09PM -33.1095 151.2275 183° South 212 244 16,200  Level Aus ATC (RADAR)
05:09PM -33.1311 151.2267 182° South 215 247 16,200 -900 Level Aus ATC (RADAR)
05:11PM -33.2123 151.2218 183° South 219 252 14,700 -1,200 Descending Aus ATC (RADAR)
05:11PM -33.2377 151.2205 182° South 219 252 14,200 -1,320 Descending Aus ATC (RADAR)
05:12PM -33.2732 151.2186 183° South 220 253 13,400 -1,380 Descending Aus ATC (RADAR)
05:12PM -33.3202 151.2160 183° South 229 264 12,400 -1,380 Descending Aus ATC (RADAR)
05:13PM -33.3598 151.2137 183° South 247 284 11,600 -1,500 Descending Aus ATC (RADAR)
05:14PM -33.3990 151.2113 183° South 248 285 10,700 -1,500 Descending Aus ATC (RADAR)
05:14PM -33.4401 151.2092 182° South 250 288 9,900 -1,440 Descending Aus ATC (RADAR)
05:15PM -33.4808 151.2070 182° South 251 289 9,100 -1,380 Descending Aus ATC (RADAR)
05:16PM -33.5778 151.2020 182° South 242 278 7,300 -1,200 Descending Aus ATC (RADAR)
05:17PM -33.6066 151.2002 183° South 243 280 7,000 -600 Descending Aus ATC (RADAR)
05:17PM -33.6464 151.1979 183° South 242 278 6,700 -540 Descending Aus ATC (RADAR)
05:18PM -33.6982 151.1945 183° South 245 282 6,300 -540 Descending Aus ATC (RADAR)
05:19PM -33.7385 151.1997 174° South 245 282 6,000 -300 Descending Aus ATC (RADAR)
05:19PM -33.7737 151.2268 147° Southeast 248 285 6,000  Level Aus ATC (RADAR)
05:20PM -33.8089 151.2529 148° Southeast 248 285 6,000  Level Aus ATC (RADAR)
05:21PM -33.9201 151.3133 156° South 245 282 6,000  Level Aus ATC (RADAR)
05:22PM -33.9497 151.3231 165° South 250 288 6,000 -420 Level Aus ATC (RADAR)
05:22PM -33.9888 151.3362 164° South 249 287 5,600 -900 Descending Aus ATC (RADAR)
05:23PM -34.0272 151.3502 163° South 246 283 5,000 -1,080 Descending Aus ATC (RADAR)
05:24PM -34.0660 151.3655 162° South 252 290 4,400 -1,080 Descending Aus ATC (RADAR)
05:24PM -34.1052 151.3809 162° South 253 291 3,800 -900 Descending Aus ATC (RADAR)
05:25PM -34.1432 151.3804 181° South 245 282 3,400 -480 Descending Aus ATC (RADAR)
05:27PM -34.1288 151.2831 280° West 174 200 2,700 -420 Descending Aus ATC (RADAR)
05:27PM -34.1134 151.2672 319° Northwest 171 197 2,500 -300 Descending Aus ATC (RADAR)
05:28PM -34.0922 151.2454 320° Northwest 168 193 2,400 -540 Descending Aus ATC (RADAR)
05:28PM -34.0641 151.2193 322° Northwest 169 194 1,800 -780 Descending Aus ATC (RADAR)
05:29PM -34.0360 151.2113 347° North 170 196 1,400 -720 Descending Aus ATC (RADAR)
05:29PM -34.0150 151.2052 347° North 156 180 1,000 -840 Descending Aus ATC (RADAR)
05:30PM -33.9931 151.1997 348° North 138 159 500 -900 Descending Aus ATC (RADAR)